createdAt,value
2022-08-17T00:00:49.494Z,5.10
2022-08-17T00:01:51.879Z,5.20
2022-08-17T00:02:42.798Z,5.30
2022-08-17T00:03:38.128Z,5.10
2022-08-17T00:04:37.117Z,5.30
2022-08-17T00:05:37.108Z,4.90
2022-08-17T00:06:37.119Z,4.80
2022-08-17T00:07:37.089Z,4.70
2022-08-17T00:08:37.078Z,4.90
2022-08-17T00:09:37.068Z,4.90
2022-08-17T00:10:37.049Z,5.20
2022-08-17T00:11:37.060Z,5.10
2022-08-17T00:12:43.395Z,4.90
2022-08-17T00:13:38.033Z,5.10
2022-08-17T00:14:37.015Z,5.10
2022-08-17T00:15:37.002Z,4.70
2022-08-17T00:16:56.891Z,4.60
2022-08-17T00:17:37.985Z,4.60
2022-08-17T00:19:06.026Z,5.10
2022-08-17T00:19:37.953Z,4.90
2022-08-17T00:20:36.955Z,5.60
2022-08-17T00:22:31.394Z,5.10
2022-08-17T00:22:37.937Z,4.50
2022-08-17T00:23:36.923Z,4.80
2022-08-17T00:24:36.912Z,4.70
2022-08-17T00:25:36.896Z,4.90
2022-08-17T00:26:44.982Z,4.70
2022-08-17T00:27:37.876Z,5.00
2022-08-17T00:28:36.857Z,4.70
2022-08-17T00:29:36.857Z,4.40
2022-08-17T00:30:51.017Z,4.80
2022-08-17T00:31:37.867Z,4.80
2022-08-17T00:33:12.227Z,4.70
2022-08-17T00:33:37.807Z,4.60
2022-08-17T00:34:36.797Z,4.90
2022-08-17T00:35:36.789Z,4.90
2022-08-17T00:36:36.798Z,4.90
2022-08-17T00:37:36.781Z,4.70
2022-08-17T00:38:36.763Z,4.90
2022-08-17T00:39:36.799Z,4.30
2022-08-17T00:40:40.580Z,4.50
2022-08-17T00:41:42.472Z,4.90
2022-08-17T00:42:37.711Z,4.90
2022-08-17T00:43:36.703Z,5.10
2022-08-17T00:44:36.683Z,4.30
2022-08-17T00:45:36.683Z,4.70
2022-08-17T00:46:36.683Z,5.00
2022-08-17T00:47:36.663Z,4.80
2022-08-17T00:48:36.644Z,4.40
2022-08-17T00:49:36.647Z,4.40
2022-08-17T00:50:36.624Z,4.90
2022-08-17T00:51:36.647Z,5.10
2022-08-17T00:52:36.606Z,5.40
2022-08-17T00:53:36.598Z,5.10
2022-08-17T00:54:41.685Z,5.40
2022-08-17T00:55:37.577Z,5.10
2022-08-17T00:56:36.589Z,5.20
2022-08-17T00:57:36.558Z,5.10
2022-08-17T00:58:36.862Z,5.00
2022-08-17T00:59:36.539Z,4.90
2022-08-17T01:00:36.519Z,5.20
2022-08-17T01:01:36.583Z,5.30
2022-08-17T01:02:42.362Z,5.20
2022-08-17T01:03:37.499Z,4.90
2022-08-17T01:04:36.481Z,4.90
2022-08-17T01:05:36.471Z,5.20
2022-08-17T01:06:36.480Z,4.80
2022-08-17T01:07:37.823Z,5.20
2022-08-17T01:08:36.441Z,4.90
2022-08-17T01:09:36.442Z,4.90
2022-08-17T01:10:59.689Z,4.70
2022-08-17T01:11:37.433Z,4.90
2022-08-17T01:12:36.397Z,4.80
2022-08-17T01:13:40.668Z,4.80
2022-08-17T01:14:37.385Z,5.00
2022-08-17T01:15:36.376Z,4.50
2022-08-17T01:16:36.377Z,4.90
2022-08-17T01:17:36.374Z,4.90
2022-08-17T01:18:36.336Z,5.40
2022-08-17T01:19:36.326Z,5.40
2022-08-17T01:20:48.427Z,5.20
2022-08-17T01:21:37.334Z,5.20
2022-08-17T01:22:36.297Z,5.10
2022-08-17T01:23:36.288Z,4.90
2022-08-17T01:24:36.279Z,5.20
2022-08-17T01:25:36.268Z,4.80
2022-08-17T01:26:36.280Z,5.80
2022-08-17T01:27:36.249Z,5.10
2022-08-17T01:28:54.437Z,5.30
2022-08-17T01:29:37.224Z,5.10
2022-08-17T01:30:56.894Z,5.40
2022-08-17T01:31:37.233Z,5.00
2022-08-17T01:32:36.191Z,4.60
2022-08-17T01:33:36.187Z,5.10
2022-08-17T01:34:43.882Z,5.30
2022-08-17T01:35:37.182Z,4.90
2022-08-17T01:36:36.192Z,4.90
2022-08-17T01:37:36.143Z,5.10
2022-08-17T01:38:36.132Z,5.30
2022-08-17T01:39:36.183Z,5.30
2022-08-17T01:40:36.113Z,5.10
2022-08-17T01:41:36.110Z,5.40
2022-08-17T01:42:36.115Z,4.80
2022-08-17T01:43:36.091Z,4.70
2022-08-17T01:44:36.083Z,5.40
2022-08-17T01:45:36.065Z,5.10
2022-08-17T01:46:36.045Z,5.40
2022-08-17T01:47:36.195Z,5.20
2022-08-17T01:48:36.026Z,4.80
2022-08-17T01:49:36.027Z,5.10
2022-08-17T01:50:36.007Z,5.00
2022-08-17T01:51:35.998Z,5.20
2022-08-17T01:52:36.008Z,5.30
2022-08-17T01:53:35.982Z,5.40
2022-08-17T01:54:35.984Z,5.50
2022-08-17T01:55:35.959Z,5.00
2022-08-17T01:56:35.950Z,5.20
2022-08-17T01:57:35.962Z,5.00
2022-08-17T01:58:35.932Z,4.90
2022-08-17T01:59:35.912Z,4.50
2022-08-17T02:00:59.703Z,4.60
2022-08-17T02:01:36.923Z,5.40
2022-08-17T02:02:35.927Z,4.80
2022-08-17T02:03:35.872Z,4.60
2022-08-17T02:04:35.863Z,4.70
2022-08-17T02:05:35.865Z,5.00
2022-08-17T02:06:44.818Z,5.30
2022-08-17T02:07:47.992Z,4.80
2022-08-17T02:08:37.154Z,4.80
2022-08-17T02:09:35.814Z,4.90
2022-08-17T02:10:36.806Z,4.70
2022-08-17T02:11:36.825Z,5.00
2022-08-17T02:12:38.444Z,5.40
2022-08-17T02:13:35.766Z,5.30
2022-08-17T02:14:35.767Z,5.40
2022-08-17T02:15:35.748Z,4.60
2022-08-17T02:16:37.485Z,5.10
2022-08-17T02:17:35.750Z,4.90
2022-08-17T02:18:35.718Z,5.30
2022-08-17T02:19:35.711Z,4.80
2022-08-17T02:20:41.809Z,5.20
2022-08-17T02:21:36.697Z,4.90
2022-08-17T02:22:35.710Z,5.20
2022-08-17T02:23:35.660Z,5.10
2022-08-17T02:24:58.400Z,5.70
2022-08-17T02:25:36.644Z,4.50
2022-08-17T02:26:35.642Z,5.30
2022-08-17T02:27:35.650Z,4.90
2022-08-17T02:28:35.621Z,5.30
2022-08-17T02:29:35.614Z,5.20
2022-08-17T02:31:00.363Z,5.20
2022-08-17T02:31:36.586Z,5.30
2022-08-17T02:32:35.604Z,5.20
2022-08-17T02:33:42.545Z,4.90
2022-08-17T02:34:36.554Z,5.30
2022-08-17T02:35:35.554Z,5.20
2022-08-17T02:36:35.555Z,5.60
2022-08-17T02:37:35.546Z,5.60
2022-08-17T02:38:35.527Z,5.80
2022-08-17T02:39:35.535Z,5.60
2022-08-17T02:40:36.197Z,5.40
2022-08-17T02:41:35.478Z,5.80
2022-08-17T02:42:35.500Z,5.00
2022-08-17T02:43:35.457Z,5.20
2022-08-17T02:44:39.656Z,5.40
2022-08-17T02:45:35.448Z,5.40
2022-08-17T02:46:35.428Z,5.50
2022-08-17T02:47:35.438Z,5.50
2022-08-17T02:48:35.418Z,5.50
2022-08-17T02:49:35.399Z,5.20
2022-08-17T02:50:35.393Z,5.30
2022-08-17T02:51:35.388Z,5.10
2022-08-17T02:52:43.368Z,5.30
2022-08-17T02:53:36.384Z,4.90
2022-08-17T02:54:40.290Z,4.80
2022-08-17T02:55:36.331Z,5.00
2022-08-17T02:56:35.323Z,5.30
2022-08-17T02:57:35.331Z,4.70
2022-08-17T02:58:36.201Z,5.30
2022-08-17T02:59:35.283Z,5.20
2022-08-17T03:00:35.278Z,4.70
2022-08-17T03:01:35.327Z,5.20
2022-08-17T03:02:35.276Z,5.30
2022-08-17T03:03:35.245Z,5.00
2022-08-17T03:04:35.556Z,5.00
2022-08-17T03:05:35.218Z,5.30
2022-08-17T03:06:35.217Z,5.20
2022-08-17T03:07:35.227Z,5.30
2022-08-17T03:08:35.198Z,5.20
2022-08-17T03:09:35.181Z,5.00
2022-08-17T03:10:35.172Z,5.30
2022-08-17T03:11:35.159Z,4.60
2022-08-17T03:12:35.169Z,5.00
2022-08-17T03:13:35.142Z,5.20
2022-08-17T03:14:40.734Z,5.20
2022-08-17T03:15:36.109Z,5.80
2022-08-17T03:16:35.118Z,5.50
2022-08-17T03:17:35.130Z,5.30
2022-08-17T03:18:35.082Z,5.40
2022-08-17T03:19:35.073Z,5.40
2022-08-17T03:20:35.062Z,6.00
2022-08-17T03:21:35.052Z,6.20
2022-08-17T03:22:36.657Z,6.00
2022-08-17T03:23:35.030Z,6.70
2022-08-17T03:24:35.023Z,6.20
2022-08-17T03:25:35.013Z,5.90
2022-08-17T03:26:35.003Z,6.30
2022-08-17T03:27:35.004Z,6.40
2022-08-17T03:28:34.974Z,5.70
2022-08-17T03:29:34.976Z,5.90
2022-08-17T03:30:34.956Z,6.10
2022-08-17T03:31:37.013Z,5.60
2022-08-17T03:32:34.957Z,6.30
2022-08-17T03:33:34.919Z,6.10
2022-08-17T03:34:34.928Z,6.20
2022-08-17T03:35:34.905Z,6.10
2022-08-17T03:36:36.092Z,6.70
2022-08-17T03:37:34.899Z,6.10
2022-08-17T03:38:39.113Z,6.10
2022-08-17T03:39:34.940Z,6.30
2022-08-17T03:40:58.999Z,6.20
2022-08-17T03:41:35.840Z,6.10
2022-08-17T03:42:34.814Z,6.20
2022-08-17T03:43:34.796Z,6.00
2022-08-17T03:44:34.813Z,6.00
2022-08-17T03:45:34.801Z,5.90
2022-08-17T03:46:35.696Z,6.00
2022-08-17T03:47:34.802Z,6.30
2022-08-17T03:48:34.773Z,6.20
2022-08-17T03:49:34.752Z,6.30
2022-08-17T03:50:34.744Z,5.80
2022-08-17T03:51:34.733Z,6.60
2022-08-17T03:52:34.703Z,6.60
2022-08-17T03:53:34.659Z,7.10
2022-08-17T03:54:34.653Z,7.30
2022-08-17T03:55:36.229Z,7.00
2022-08-17T03:56:34.625Z,6.70
2022-08-17T03:57:34.635Z,6.50
2022-08-17T03:58:34.608Z,6.60
2022-08-17T03:59:34.597Z,6.50
2022-08-17T04:00:34.587Z,7.10
2022-08-17T04:01:35.638Z,6.60
2022-08-17T04:02:34.587Z,6.80
2022-08-17T04:03:34.556Z,7.10
2022-08-17T04:04:34.539Z,6.80
2022-08-17T04:05:34.647Z,7.00
2022-08-17T04:06:34.519Z,7.20
2022-08-17T04:07:34.529Z,6.70
2022-08-17T04:08:34.508Z,6.80
2022-08-17T04:09:34.480Z,6.60
2022-08-17T04:10:34.480Z,6.70
2022-08-17T04:11:35.471Z,6.90
2022-08-17T04:12:34.482Z,6.40
2022-08-17T04:13:34.446Z,6.40
2022-08-17T04:14:34.433Z,6.40
2022-08-17T04:15:34.423Z,6.00
2022-08-17T04:16:34.415Z,6.30
2022-08-17T04:17:34.424Z,6.60
2022-08-17T04:18:34.394Z,6.10
2022-08-17T04:19:34.383Z,6.40
2022-08-17T04:20:34.387Z,5.70
2022-08-17T04:21:34.374Z,6.10
2022-08-17T04:22:34.539Z,6.40
2022-08-17T04:23:34.336Z,6.30
2022-08-17T04:24:34.345Z,6.20
2022-08-17T04:25:34.318Z,6.30
2022-08-17T04:26:54.082Z,6.30
2022-08-17T04:27:35.317Z,6.70
2022-08-17T04:28:34.287Z,6.70
2022-08-17T04:29:54.399Z,6.60
2022-08-17T04:30:35.268Z,6.80
2022-08-17T04:31:34.260Z,6.70
2022-08-17T04:33:10.467Z,6.00
2022-08-17T04:33:35.246Z,6.60
2022-08-17T04:34:34.230Z,6.70
2022-08-17T04:35:34.210Z,6.90
2022-08-17T04:36:34.200Z,6.80
2022-08-17T04:37:34.220Z,6.40
2022-08-17T04:38:34.201Z,6.60
2022-08-17T04:39:34.208Z,6.40
2022-08-17T04:40:34.153Z,6.70
2022-08-17T04:41:34.143Z,6.40
2022-08-17T04:42:34.162Z,6.90
2022-08-17T04:43:34.123Z,6.20
2022-08-17T04:44:37.785Z,6.40
2022-08-17T04:45:34.102Z,6.40
2022-08-17T04:46:34.094Z,6.00
2022-08-17T04:47:34.105Z,6.40
2022-08-17T04:48:35.956Z,7.00
2022-08-17T04:49:34.055Z,6.80
2022-08-17T04:50:34.056Z,6.50
2022-08-17T04:51:34.036Z,6.00
2022-08-17T04:52:43.443Z,7.10
2022-08-17T04:53:35.021Z,6.50
2022-08-17T04:54:34.017Z,6.40
2022-08-17T04:55:33.998Z,6.80
2022-08-17T04:56:33.997Z,6.50
2022-08-17T04:57:38.472Z,7.30
2022-08-17T04:58:34.969Z,7.60
2022-08-17T04:59:33.950Z,6.80
2022-08-17T05:00:33.941Z,7.10
2022-08-17T05:01:33.960Z,7.00
2022-08-17T05:02:33.950Z,7.60
2022-08-17T05:03:33.910Z,7.20
2022-08-17T05:04:35.444Z,7.50
2022-08-17T05:05:33.891Z,7.20
2022-08-17T05:06:33.905Z,7.20
2022-08-17T05:07:33.891Z,7.50
2022-08-17T05:08:33.874Z,7.30
2022-08-17T05:09:33.850Z,7.10
2022-08-17T05:10:33.843Z,7.20
2022-08-17T05:11:33.835Z,7.40
2022-08-17T05:12:33.844Z,7.20
2022-08-17T05:13:33.823Z,7.00
2022-08-17T05:14:34.041Z,6.50
2022-08-17T05:15:36.052Z,7.30
2022-08-17T05:16:33.777Z,6.90
2022-08-17T05:17:33.786Z,6.60
2022-08-17T05:18:33.758Z,6.80
2022-08-17T05:19:33.745Z,6.50
2022-08-17T05:20:33.741Z,6.00
2022-08-17T05:21:33.718Z,6.20
2022-08-17T05:22:33.738Z,6.10
2022-08-17T05:23:42.972Z,6.40
2022-08-17T05:24:38.678Z,6.50
2022-08-17T05:25:36.220Z,6.60
2022-08-17T05:26:33.679Z,6.50
2022-08-17T05:27:35.417Z,6.20
2022-08-17T05:28:33.652Z,6.30
2022-08-17T05:29:35.452Z,5.80
2022-08-17T05:30:33.632Z,6.10
2022-08-17T05:31:33.623Z,5.80
2022-08-17T05:32:39.006Z,6.60
2022-08-17T05:33:34.603Z,6.00
2022-08-17T05:34:33.593Z,6.60
2022-08-17T05:35:33.582Z,6.30
2022-08-17T05:36:42.331Z,6.30
2022-08-17T05:37:34.583Z,6.30
2022-08-17T05:38:33.553Z,6.10
2022-08-17T05:39:33.570Z,5.90
2022-08-17T05:40:33.529Z,6.50
2022-08-17T05:41:33.515Z,6.20
2022-08-17T05:42:33.546Z,6.40
2022-08-17T05:43:33.503Z,6.60
2022-08-17T05:44:33.488Z,6.20
2022-08-17T05:45:55.713Z,6.70
2022-08-17T05:46:34.478Z,6.40
2022-08-17T05:47:33.477Z,6.70
2022-08-17T05:48:35.801Z,6.10
2022-08-17T05:49:34.436Z,6.60
2022-08-17T05:50:33.418Z,6.30
2022-08-17T05:51:33.409Z,6.80
2022-08-17T05:52:33.422Z,6.30
2022-08-17T05:53:35.243Z,5.80
2022-08-17T05:54:33.381Z,6.10
2022-08-17T05:55:33.370Z,6.60
2022-08-17T05:56:33.362Z,6.20
2022-08-17T05:57:33.367Z,6.20
2022-08-17T05:58:33.342Z,6.40
2022-08-17T05:59:33.322Z,6.40
2022-08-17T06:00:33.315Z,5.70
2022-08-17T06:01:33.359Z,5.90
2022-08-17T06:02:33.314Z,6.90
2022-08-17T06:03:33.274Z,6.50
2022-08-17T06:04:33.274Z,6.70
2022-08-17T06:05:33.265Z,6.60
2022-08-17T06:06:33.252Z,6.70
2022-08-17T06:07:33.255Z,6.60
2022-08-17T06:08:33.225Z,7.40
2022-08-17T06:09:34.062Z,6.50
2022-08-17T06:10:33.215Z,6.80
2022-08-17T06:11:33.198Z,8.80
2022-08-17T06:12:33.206Z,7.90
2022-08-17T06:13:33.169Z,7.60
2022-08-17T06:14:33.159Z,8.00
2022-08-17T06:15:33.150Z,7.10
2022-08-17T06:16:34.755Z,7.80
2022-08-17T06:17:33.150Z,7.60
2022-08-17T06:18:33.110Z,7.50
2022-08-17T06:19:33.121Z,7.50
2022-08-17T06:20:33.092Z,7.60
2022-08-17T06:21:33.082Z,7.60
2022-08-17T06:22:33.091Z,8.30
2022-08-17T06:23:33.062Z,7.40
2022-08-17T06:24:33.053Z,7.50
2022-08-17T06:25:33.044Z,8.60
2022-08-17T06:26:39.653Z,8.20
2022-08-17T06:27:34.046Z,8.30
2022-08-17T06:28:33.014Z,8.60
2022-08-17T06:29:33.008Z,8.10
2022-08-17T06:30:57.410Z,7.70
2022-08-17T06:31:33.976Z,8.20
2022-08-17T06:32:32.986Z,8.10
2022-08-17T06:33:32.958Z,7.60
2022-08-17T06:34:32.962Z,6.80
2022-08-17T06:35:34.023Z,7.00
2022-08-17T06:36:32.926Z,7.10
2022-08-17T06:37:32.938Z,8.20
2022-08-17T06:38:37.474Z,7.90
2022-08-17T06:39:33.940Z,7.60
2022-08-17T06:40:32.888Z,8.10
2022-08-17T06:41:32.880Z,7.50
2022-08-17T06:43:02.206Z,7.70
2022-08-17T06:43:33.850Z,7.30
2022-08-17T06:44:49.882Z,7.20
2022-08-17T06:45:33.833Z,7.60
2022-08-17T06:46:32.821Z,7.30
2022-08-17T06:47:32.843Z,6.80
2022-08-17T06:48:32.802Z,7.40
2022-08-17T06:49:32.794Z,7.20
2022-08-17T06:50:32.784Z,7.10
2022-08-17T06:51:32.774Z,7.20
2022-08-17T06:52:55.756Z,7.10
2022-08-17T06:53:33.753Z,7.40
2022-08-17T06:54:32.744Z,6.60
2022-08-17T06:55:37.706Z,7.50
2022-08-17T06:56:54.472Z,7.30
2022-08-17T06:57:33.727Z,7.60
2022-08-17T06:58:32.695Z,7.60
2022-08-17T06:59:34.836Z,6.90
2022-08-17T07:00:33.774Z,6.90
2022-08-17T07:01:32.728Z,7.30
2022-08-17T07:02:52.487Z,7.10
2022-08-17T07:03:33.638Z,7.20
2022-08-17T07:04:32.631Z,7.20
2022-08-17T07:05:32.645Z,6.90
2022-08-17T07:06:32.610Z,6.60
2022-08-17T07:07:33.644Z,6.20
2022-08-17T07:08:34.859Z,6.90
2022-08-17T07:09:32.589Z,7.10
2022-08-17T07:10:32.562Z,6.90
2022-08-17T07:11:32.561Z,6.60
2022-08-17T07:12:32.571Z,7.10
2022-08-17T07:13:32.543Z,6.60
2022-08-17T07:14:32.542Z,6.40
2022-08-17T07:15:32.523Z,6.30
2022-08-17T07:16:32.508Z,6.60
2022-08-17T07:17:46.975Z,6.70
2022-08-17T07:18:33.484Z,6.80
2022-08-17T07:19:32.475Z,7.10
2022-08-17T07:20:32.464Z,8.00
2022-08-17T07:21:32.456Z,7.30
2022-08-17T07:22:57.203Z,7.00
2022-08-17T07:23:33.455Z,7.70
2022-08-17T07:24:32.426Z,6.90
2022-08-17T07:25:32.426Z,7.20
2022-08-17T07:26:32.398Z,7.20
2022-08-17T07:27:32.399Z,7.30
2022-08-17T07:28:32.406Z,6.90
2022-08-17T07:29:32.379Z,6.50
2022-08-17T07:30:45.835Z,7.00
2022-08-17T07:31:33.363Z,7.20
2022-08-17T07:32:32.358Z,7.40
2022-08-17T07:33:32.361Z,6.60
2022-08-17T07:34:32.323Z,7.10
2022-08-17T07:35:40.941Z,6.70
2022-08-17T07:36:33.302Z,6.80
2022-08-17T07:37:32.292Z,7.30
2022-08-17T07:38:32.304Z,7.30
2022-08-17T07:39:32.299Z,6.80
2022-08-17T07:40:32.319Z,6.80
2022-08-17T07:41:57.430Z,7.10
2022-08-17T07:42:34.394Z,7.00
2022-08-17T07:43:32.254Z,6.40
2022-08-17T07:44:32.224Z,6.50
2022-08-17T07:45:32.206Z,6.80
2022-08-17T07:46:32.199Z,7.30
2022-08-17T07:47:32.197Z,7.60
2022-08-17T07:48:32.197Z,6.80
2022-08-17T07:49:32.170Z,6.70
2022-08-17T07:50:32.149Z,7.10
2022-08-17T07:51:32.149Z,6.90
2022-08-17T07:52:51.365Z,7.30
2022-08-17T07:53:33.130Z,7.10
2022-08-17T07:54:32.111Z,6.60
2022-08-17T07:55:32.100Z,6.60
2022-08-17T07:56:34.515Z,6.20
2022-08-17T07:57:32.102Z,7.80
2022-08-17T07:58:32.064Z,6.80
2022-08-17T07:59:33.417Z,6.70
2022-08-17T08:00:32.988Z,6.70
2022-08-17T08:01:39.412Z,6.80
2022-08-17T08:02:33.904Z,6.50
2022-08-17T08:03:32.016Z,6.50
2022-08-17T08:05:49.744Z,6.10
2022-08-17T08:06:32.994Z,6.30
2022-08-17T08:07:32.039Z,6.50
2022-08-17T08:08:31.964Z,6.00
2022-08-17T08:09:31.956Z,6.20
2022-08-17T08:10:31.937Z,5.80
2022-08-17T08:11:31.936Z,5.90
2022-08-17T08:12:33.713Z,6.10
2022-08-17T08:13:31.916Z,5.90
2022-08-17T08:14:31.898Z,5.70
2022-08-17T08:15:31.888Z,6.20
2022-08-17T08:16:31.879Z,5.90
2022-08-17T08:17:31.891Z,6.10
2022-08-17T08:18:38.693Z,6.30
2022-08-17T08:19:32.851Z,5.70
2022-08-17T08:20:51.485Z,5.90
2022-08-17T08:21:32.831Z,5.90
2022-08-17T08:22:31.843Z,6.20
2022-08-17T08:23:31.812Z,5.90
2022-08-17T08:24:31.814Z,6.00
2022-08-17T08:25:31.784Z,5.80
2022-08-17T08:26:31.776Z,5.80
2022-08-17T08:27:31.804Z,5.60
2022-08-17T08:28:31.774Z,5.40
2022-08-17T08:29:31.776Z,5.50
2022-08-17T08:30:33.053Z,5.40
2022-08-17T08:31:31.726Z,5.40
2022-08-17T08:32:31.737Z,5.20
2022-08-17T08:33:31.708Z,4.90
2022-08-17T08:34:58.623Z,5.00
2022-08-17T08:35:32.688Z,5.00
2022-08-17T08:37:14.226Z,4.50
2022-08-17T08:37:36.706Z,5.20
2022-08-17T08:38:32.654Z,5.10
2022-08-17T08:39:31.676Z,4.30
2022-08-17T08:40:31.630Z,4.60
2022-08-17T08:41:31.621Z,4.50
2022-08-17T08:42:31.640Z,4.40
2022-08-17T08:43:31.602Z,4.50
2022-08-17T08:44:59.899Z,4.20
2022-08-17T08:45:32.587Z,4.50
2022-08-17T08:46:31.565Z,4.70
2022-08-17T08:47:31.589Z,4.20
2022-08-17T08:48:55.651Z,4.20
2022-08-17T08:50:01.364Z,4.20
2022-08-17T08:50:37.686Z,4.40
2022-08-17T08:51:32.526Z,4.10
2022-08-17T08:52:31.541Z,4.00
2022-08-17T08:53:31.507Z,4.10
2022-08-17T08:54:31.487Z,4.30
2022-08-17T08:55:31.478Z,4.20
2022-08-17T08:56:31.469Z,4.30
2022-08-17T08:57:34.378Z,4.10
2022-08-17T08:58:41.330Z,3.90
2022-08-17T08:59:32.440Z,3.90
2022-08-17T09:00:31.430Z,3.80
2022-08-17T09:01:31.450Z,4.10
2022-08-17T09:02:34.659Z,3.80
2022-08-17T09:03:51.857Z,3.80
2022-08-17T09:04:44.972Z,3.60
2022-08-17T09:05:32.380Z,3.60
2022-08-17T09:06:37.439Z,3.80
2022-08-17T09:07:32.363Z,3.80
2022-08-17T09:08:31.373Z,4.00
2022-08-17T09:09:31.344Z,3.90
2022-08-17T09:10:31.327Z,3.80
2022-08-17T09:11:31.325Z,3.80
2022-08-17T09:12:31.317Z,3.80
2022-08-17T09:13:31.339Z,3.70
2022-08-17T09:14:31.286Z,3.30
2022-08-17T09:15:32.280Z,2.90
2022-08-17T09:16:31.278Z,3.10
2022-08-17T09:17:31.268Z,2.80
2022-08-17T09:19:01.132Z,3.10
2022-08-17T09:19:32.239Z,2.80
2022-08-17T09:20:31.230Z,3.20
2022-08-17T09:21:33.723Z,2.60
2022-08-17T09:22:31.233Z,3.20
2022-08-17T09:23:31.231Z,3.00
2022-08-17T09:24:31.191Z,3.10
2022-08-17T09:25:31.183Z,2.70
2022-08-17T09:26:31.174Z,2.60
2022-08-17T09:27:31.166Z,2.60
2022-08-17T09:28:31.173Z,3.00
2022-08-17T09:29:31.152Z,2.80
2022-08-17T09:30:31.145Z,3.10
2022-08-17T09:31:33.365Z,3.00
2022-08-17T09:32:31.116Z,2.80
2022-08-17T09:33:31.127Z,3.30
2022-08-17T09:34:33.103Z,2.80
2022-08-17T09:35:32.787Z,3.40
2022-08-17T09:36:32.077Z,2.90
2022-08-17T09:37:31.069Z,3.40
2022-08-17T09:38:32.654Z,2.80
2022-08-17T09:39:31.112Z,2.70
2022-08-17T09:40:31.040Z,2.80
2022-08-17T09:41:31.031Z,2.40
2022-08-17T09:42:31.020Z,2.50
2022-08-17T09:43:31.031Z,2.70
2022-08-17T09:44:31.041Z,2.50
2022-08-17T09:45:31.006Z,2.50
2022-08-17T09:46:30.984Z,2.80
2022-08-17T09:47:30.973Z,2.70
2022-08-17T09:48:30.983Z,2.80
2022-08-17T09:49:34.677Z,2.90
2022-08-17T09:51:03.336Z,2.80
2022-08-17T09:51:31.934Z,2.70
2022-08-17T09:52:30.925Z,2.90
2022-08-17T09:53:31.915Z,3.10
2022-08-17T09:54:39.938Z,3.10
2022-08-17T09:55:31.896Z,2.90
2022-08-17T09:56:30.877Z,3.10
2022-08-17T09:57:31.989Z,2.80
2022-08-17T09:58:30.902Z,2.70
2022-08-17T09:59:38.193Z,3.00
2022-08-17T10:00:31.842Z,2.90
2022-08-17T10:01:30.875Z,3.00
2022-08-17T10:02:30.823Z,2.70
2022-08-17T10:03:30.830Z,2.80
2022-08-17T10:04:30.803Z,2.50
2022-08-17T10:05:30.802Z,2.60
2022-08-17T10:06:30.791Z,2.40
2022-08-17T10:07:30.800Z,2.30
2022-08-17T10:08:30.812Z,2.60
2022-08-17T10:09:30.761Z,2.40
2022-08-17T10:10:32.483Z,2.30
2022-08-17T10:11:33.756Z,2.20
2022-08-17T10:12:30.746Z,2.40
2022-08-17T10:13:30.736Z,2.90
2022-08-17T10:14:37.282Z,2.40
2022-08-17T10:15:31.700Z,2.70
2022-08-17T10:16:30.689Z,2.40
2022-08-17T10:17:30.687Z,2.80
2022-08-17T10:18:33.135Z,2.70
2022-08-17T10:19:30.671Z,2.40
2022-08-17T10:20:30.656Z,2.40
2022-08-17T10:21:30.641Z,2.30
2022-08-17T10:22:34.710Z,2.50
2022-08-17T10:23:30.641Z,2.60
2022-08-17T10:24:30.643Z,2.60
2022-08-17T10:25:53.492Z,2.50
2022-08-17T10:26:55.408Z,2.30
2022-08-17T10:27:31.583Z,2.10
2022-08-17T10:28:30.672Z,2.60
2022-08-17T10:29:30.564Z,2.40
2022-08-17T10:30:31.579Z,2.60
2022-08-17T10:31:35.235Z,2.70
2022-08-17T10:32:31.541Z,2.70
2022-08-17T10:33:30.545Z,2.80
2022-08-17T10:34:30.518Z,2.60
2022-08-17T10:35:31.503Z,2.50
2022-08-17T10:36:30.495Z,2.60
2022-08-17T10:37:30.505Z,2.80
2022-08-17T10:38:30.508Z,2.50
2022-08-17T10:39:30.524Z,2.10
2022-08-17T10:40:30.507Z,2.20
2022-08-17T10:41:30.451Z,2.00
2022-08-17T10:42:32.789Z,2.30
2022-08-17T10:43:30.458Z,2.30
2022-08-17T10:44:38.601Z,2.20
2022-08-17T10:45:31.411Z,2.00
2022-08-17T10:46:31.783Z,2.30
2022-08-17T10:47:38.240Z,2.20
2022-08-17T10:48:31.402Z,2.10
2022-08-17T10:49:30.383Z,2.30
2022-08-17T10:50:30.364Z,1.90
2022-08-17T10:51:30.354Z,2.20
2022-08-17T10:52:30.344Z,2.30
2022-08-17T10:53:30.355Z,2.00
2022-08-17T10:54:30.333Z,2.10
2022-08-17T10:55:30.315Z,2.20
2022-08-17T10:56:30.312Z,2.00
2022-08-17T10:57:30.295Z,2.40
2022-08-17T10:58:30.315Z,2.40
2022-08-17T10:59:30.276Z,2.20
2022-08-17T11:00:30.268Z,2.20
2022-08-17T11:01:30.383Z,1.90
2022-08-17T11:02:31.123Z,1.80
2022-08-17T11:03:30.990Z,1.80
2022-08-17T11:04:30.238Z,2.10
2022-08-17T11:05:30.219Z,1.80
2022-08-17T11:06:30.218Z,1.70
2022-08-17T11:07:30.201Z,1.60
2022-08-17T11:08:30.241Z,1.60
2022-08-17T11:09:30.191Z,1.70
2022-08-17T11:10:30.183Z,1.80
2022-08-17T11:11:30.162Z,1.90
2022-08-17T11:12:30.165Z,1.70
2022-08-17T11:13:30.163Z,1.60
2022-08-17T11:14:30.145Z,1.70
2022-08-17T11:15:30.851Z,1.80
2022-08-17T11:16:30.117Z,2.00
2022-08-17T11:17:30.106Z,2.10
2022-08-17T11:18:30.126Z,1.80
2022-08-17T11:19:30.077Z,1.90
2022-08-17T11:20:30.077Z,1.80
2022-08-17T11:21:30.067Z,2.00
2022-08-17T11:22:33.561Z,1.80
2022-08-17T11:23:30.061Z,2.60
2022-08-17T11:24:30.040Z,2.20
2022-08-17T11:25:30.028Z,2.20
2022-08-17T11:26:30.027Z,2.40
2022-08-17T11:27:29.999Z,2.50
2022-08-17T11:28:30.013Z,2.40
2022-08-17T11:29:29.980Z,2.30
2022-08-17T11:30:29.986Z,2.10
2022-08-17T11:31:38.695Z,2.20
2022-08-17T11:32:31.114Z,2.40
2022-08-17T11:33:29.976Z,2.50
2022-08-17T11:34:29.933Z,2.40
2022-08-17T11:35:29.922Z,2.50
2022-08-17T11:36:29.915Z,2.40
2022-08-17T11:37:29.904Z,2.30
2022-08-17T11:38:29.916Z,2.60
2022-08-17T11:39:29.920Z,2.20
2022-08-17T11:40:29.876Z,2.40
2022-08-17T11:41:29.859Z,2.60
2022-08-17T11:42:29.857Z,2.00
2022-08-17T11:43:29.858Z,2.40
2022-08-17T11:44:29.842Z,2.10
2022-08-17T11:45:32.357Z,2.60
2022-08-17T11:46:29.809Z,2.30
2022-08-17T11:47:29.799Z,2.30
2022-08-17T11:48:30.288Z,2.30
2022-08-17T11:49:29.781Z,2.60
2022-08-17T11:50:29.775Z,2.70
2022-08-17T11:51:29.781Z,2.80
2022-08-17T11:52:29.752Z,2.50
2022-08-17T11:53:29.761Z,2.50
2022-08-17T11:54:34.315Z,2.60
2022-08-17T11:55:41.919Z,2.50
2022-08-17T11:56:30.715Z,2.60
2022-08-17T11:57:29.704Z,2.40
2022-08-17T11:58:29.740Z,2.80
2022-08-17T11:59:29.676Z,3.00
2022-08-17T12:00:29.674Z,2.50
2022-08-17T12:01:29.656Z,2.70
2022-08-17T12:02:29.934Z,3.10
2022-08-17T12:03:29.697Z,2.70
2022-08-17T12:04:29.714Z,2.60
2022-08-17T12:05:29.626Z,2.80
2022-08-17T12:06:30.979Z,2.80
2022-08-17T12:07:29.609Z,2.50
2022-08-17T12:08:29.617Z,2.90
2022-08-17T12:09:29.578Z,2.70
2022-08-17T12:10:29.571Z,2.90
2022-08-17T12:12:01.648Z,3.10
2022-08-17T12:12:30.553Z,2.70
2022-08-17T12:13:34.643Z,2.60
2022-08-17T12:15:05.762Z,3.00
2022-08-17T12:15:30.512Z,2.80
2022-08-17T12:16:29.528Z,2.90
2022-08-17T12:17:41.525Z,3.20
2022-08-17T12:18:30.505Z,2.80
2022-08-17T12:19:29.479Z,2.90
2022-08-17T12:20:29.480Z,3.00
2022-08-17T12:21:29.471Z,2.80
2022-08-17T12:22:29.446Z,2.90
2022-08-17T12:23:29.490Z,2.90
2022-08-17T12:24:29.434Z,2.60
2022-08-17T12:25:29.417Z,2.60
2022-08-17T12:26:29.408Z,2.60
2022-08-17T12:28:04.399Z,2.70
2022-08-17T12:28:30.417Z,2.70
2022-08-17T12:29:35.902Z,2.80
2022-08-17T12:30:30.360Z,2.50
2022-08-17T12:31:29.350Z,2.90
2022-08-17T12:32:29.351Z,2.30
2022-08-17T12:33:29.354Z,2.50
2022-08-17T12:34:29.323Z,2.50
2022-08-17T12:35:29.318Z,2.50
2022-08-17T12:36:29.303Z,2.40
2022-08-17T12:37:29.293Z,2.60
2022-08-17T12:38:33.025Z,2.60
2022-08-17T12:39:29.315Z,2.70
2022-08-17T12:40:29.265Z,2.50
2022-08-17T12:41:29.254Z,3.30
2022-08-17T12:42:29.265Z,2.40
2022-08-17T12:43:29.248Z,2.80
2022-08-17T12:44:29.226Z,2.70
2022-08-17T12:45:29.207Z,2.50
2022-08-17T12:46:29.206Z,2.70
2022-08-17T12:47:29.557Z,3.10
2022-08-17T12:48:29.198Z,2.80
2022-08-17T12:49:29.168Z,3.00
2022-08-17T12:50:30.254Z,2.60
2022-08-17T12:51:29.387Z,2.60
2022-08-17T12:52:29.140Z,2.60
2022-08-17T12:53:29.169Z,2.90
2022-08-17T12:54:29.121Z,2.70
2022-08-17T12:55:32.740Z,2.80
2022-08-17T12:56:29.101Z,3.00
2022-08-17T12:57:29.083Z,2.90
2022-08-17T12:58:29.097Z,2.90
2022-08-17T12:59:29.064Z,3.00
2022-08-17T13:00:29.055Z,2.80
2022-08-17T13:01:29.095Z,3.20
2022-08-17T13:02:29.090Z,2.70
2022-08-17T13:03:32.926Z,2.80
2022-08-17T13:04:30.019Z,2.70
2022-08-17T13:05:29.009Z,3.00
2022-08-17T13:06:29.869Z,2.90
2022-08-17T13:07:28.986Z,2.70
2022-08-17T13:08:28.998Z,2.70
2022-08-17T13:09:35.829Z,2.90
2022-08-17T13:10:32.867Z,2.50
2022-08-17T13:11:28.947Z,3.10
2022-08-17T13:12:28.932Z,2.50
2022-08-17T13:13:28.939Z,2.80
2022-08-17T13:14:28.909Z,3.00
2022-08-17T13:15:28.900Z,2.80
2022-08-17T13:16:28.891Z,2.70
2022-08-17T13:17:28.891Z,2.40
2022-08-17T13:18:28.893Z,2.80
2022-08-17T13:19:40.015Z,3.10